sensor_id;sensor_type;location;lat;lon;timestamp;temperature;humidity
6114;DHT22;3087;48.392;10.836;2024-03-23T00:54:10;12.30;95.70
6114;DHT22;3087;48.392;10.836;2024-03-23T00:56:35;12.20;96.10
6114;DHT22;3087;48.392;10.836;2024-03-23T00:59:01;12.20;95.90
6114;DHT22;3087;48.392;10.836;2024-03-23T01:01:26;12.10;95.90
6114;DHT22;3087;48.392;10.836;2024-03-23T01:03:52;12.20;96.10
6114;DHT22;3087;48.392;10.836;2024-03-23T01:06:18;12.20;96.30
6114;DHT22;3087;48.392;10.836;2024-03-23T01:08:44;12.40;96.30
6114;DHT22;3087;48.392;10.836;2024-03-23T01:11:09;12.30;96.20
6114;DHT22;3087;48.392;10.836;2024-03-23T01:13:35;12.20;96.20
6114;DHT22;3087;48.392;10.836;2024-03-23T01:16:00;12.20;96.20
6114;DHT22;3087;48.392;10.836;2024-03-23T01:18:26;12.10;96.20
6114;DHT22;3087;48.392;10.836;2024-03-23T01:20:52;12.00;96.30
6114;DHT22;3087;48.392;10.836;2024-03-23T01:23:18;12.00;96.40
6114;DHT22;3087;48.392;10.836;2024-03-23T01:25:43;11.90;96.40
6114;DHT22;3087;48.392;10.836;2024-03-23T01:28:09;11.90;96.50
6114;DHT22;3087;48.392;10.836;2024-03-23T01:30:35;11.90;96.70
6114;DHT22;3087;48.392;10.836;2024-03-23T01:33:01;12.10;96.80
6114;DHT22;3087;48.392;10.836;2024-03-23T01:35:28;12.10;96.70
6114;DHT22;3087;48.392;10.836;2024-03-23T01:37:54;12.00;96.60
6114;DHT22;3087;48.392;10.836;2024-03-23T01:40:19;11.90;96.80
6114;DHT22;3087;48.392;10.836;2024-03-23T01:43:06;11.80;96.90
6114;DHT22;3087;48.392;10.836;2024-03-23T01:45:33;11.90;97.10
6114;DHT22;3087;48.392;10.836;2024-03-23T01:47:59;11.80;96.90
6114;DHT22;3087;48.392;10.836;2024-03-23T01:50:25;11.90;97.20
6114;DHT22;3087;48.392;10.836;2024-03-23T01:52:51;11.90;97.10
6114;DHT22;3087;48.392;10.836;2024-03-23T01:55:17;12.20;97.10
6114;DHT22;3087;48.392;10.836;2024-03-23T01:57:43;12.20;97.30
6114;DHT22;3087;48.392;10.836;2024-03-23T02:00:09;11.90;97.10
6114;DHT22;3087;48.392;10.836;2024-03-23T02:02:42;11.80;97.10
6114;DHT22;3087;48.392;10.836;2024-03-23T02:05:08;11.90;97.20
6114;DHT22;3087;48.392;10.836;2024-03-23T02:07:33;11.90;97.20
6114;DHT22;3087;48.392;10.836;2024-03-23T02:10:00;11.80;97.30
6114;DHT22;3087;48.392;10.836;2024-03-23T02:12:26;11.80;97.30
6114;DHT22;3087;48.392;10.836;2024-03-23T02:14:52;11.80;97.60
6114;DHT22;3087;48.392;10.836;2024-03-23T02:17:17;11.90;97.50
6114;DHT22;3087;48.392;10.836;2024-03-23T02:19:43;11.80;97.50
6114;DHT22;3087;48.392;10.836;2024-03-23T02:22:08;11.80;97.60
6114;DHT22;3087;48.392;10.836;2024-03-23T02:24:36;11.70;97.70
6114;DHT22;3087;48.392;10.836;2024-03-23T02:27:02;11.70;97.70
6114;DHT22;3087;48.392;10.836;2024-03-23T02:29:28;11.60;97.80
6114;DHT22;3087;48.392;10.836;2024-03-23T02:31:53;11.60;97.90
6114;DHT22;3087;48.392;10.836;2024-03-23T02:34:20;11.60;97.90
6114;DHT22;3087;48.392;10.836;2024-03-23T02:36:46;11.60;98.00
6114;DHT22;3087;48.392;10.836;2024-03-23T02:39:12;11.70;98.10
6114;DHT22;3087;48.392;10.836;2024-03-23T02:41:37;11.60;98.20
6114;DHT22;3087;48.392;10.836;2024-03-23T02:44:03;11.50;98.20
6114;DHT22;3087;48.392;10.836;2024-03-23T02:46:28;11.50;98.20
6114;DHT22;3087;48.392;10.836;2024-03-23T02:48:54;11.60;98.30
6114;DHT22;3087;48.392;10.836;2024-03-23T02:51:19;11.60;98.30
6114;DHT22;3087;48.392;10.836;2024-03-23T02:53:45;11.60;98.30
6114;DHT22;3087;48.392;10.836;2024-03-23T02:56:10;11.70;98.40
6114;DHT22;3087;48.392;10.836;2024-03-23T02:58:41;11.70;98.40
6114;DHT22;3087;48.392;10.836;2024-03-23T03:01:07;11.70;98.50
6114;DHT22;3087;48.392;10.836;2024-03-23T03:03:32;11.70;98.50
6114;DHT22;3087;48.392;10.836;2024-03-23T03:05:58;11.80;98.60
6114;DHT22;3087;48.392;10.836;2024-03-23T03:08:23;11.70;98.60
6114;DHT22;3087;48.392;10.836;2024-03-23T03:10:49;11.70;98.60
6114;DHT22;3087;48.392;10.836;2024-03-23T03:13:14;11.70;98.70
6114;DHT22;3087;48.392;10.836;2024-03-23T03:15:44;11.70;98.80
6114;DHT22;3087;48.392;10.836;2024-03-23T03:18:09;11.70;98.80
6114;DHT22;3087;48.392;10.836;2024-03-23T03:20:38;11.60;98.80
6114;DHT22;3087;48.392;10.836;2024-03-23T03:23:05;11.70;98.80
6114;DHT22;3087;48.392;10.836;2024-03-23T03:25:30;11.70;98.90
6114;DHT22;3087;48.392;10.836;2024-03-23T03:27:56;11.70;98.80
6114;DHT22;3087;48.392;10.836;2024-03-23T03:30:21;11.70;98.80
6114;DHT22;3087;48.392;10.836;2024-03-23T03:32:47;11.80;98.80
6114;DHT22;3087;48.392;10.836;2024-03-23T03:35:13;11.80;98.90
6114;DHT22;3087;48.392;10.836;2024-03-23T03:37:38;14.00;99.90
6114;DHT22;3087;48.392;10.836;2024-03-23T03:40:05;11.70;98.80
6114;DHT22;3087;48.392;10.836;2024-03-23T03:42:34;11.70;98.80
6114;DHT22;3087;48.392;10.836;2024-03-23T03:44:59;11.80;98.80
6114;DHT22;3087;48.392;10.836;2024-03-23T03:47:25;11.80;98.80
6114;DHT22;3087;48.392;10.836;2024-03-23T03:49:50;11.90;98.80
6114;DHT22;3087;48.392;10.836;2024-03-23T03:52:16;12.00;98.80
6114;DHT22;3087;48.392;10.836;2024-03-23T03:54:41;12.10;98.70
6114;DHT22;3087;48.392;10.836;2024-03-23T03:57:07;12.10;98.60
6114;DHT22;3087;48.392;10.836;2024-03-23T03:59:32;12.10;98.60
6114;DHT22;3087;48.392;10.836;2024-03-23T04:01:58;12.10;98.70
6114;DHT22;3087;48.392;10.836;2024-03-23T04:04:24;12.10;98.70
6114;DHT22;3087;48.392;10.836;2024-03-23T04:06:49;12.20;98.80
6114;DHT22;3087;48.392;10.836;2024-03-23T04:09:15;12.20;98.70
6114;DHT22;3087;48.392;10.836;2024-03-23T04:11:40;12.20;98.70
6114;DHT22;3087;48.392;10.836;2024-03-23T04:14:06;12.30;98.80
6114;DHT22;3087;48.392;10.836;2024-03-23T04:16:34;12.30;98.70
6114;DHT22;3087;48.392;10.836;2024-03-23T04:19:00;12.30;98.60
6114;DHT22;3087;48.392;10.836;2024-03-23T04:21:26;12.30;98.60
6114;DHT22;3087;48.392;10.836;2024-03-23T04:23:52;12.50;98.70
6114;DHT22;3087;48.392;10.836;2024-03-23T04:26:17;12.60;98.70
6114;DHT22;3087;48.392;10.836;2024-03-23T04:28:43;12.80;98.70
6114;DHT22;3087;48.392;10.836;2024-03-23T04:31:09;12.60;98.60
6114;DHT22;3087;48.392;10.836;2024-03-23T04:33:35;12.70;98.70
6114;DHT22;3087;48.392;10.836;2024-03-23T04:36:00;12.50;98.60
6114;DHT22;3087;48.392;10.836;2024-03-23T04:38:26;12.90;98.80
6114;DHT22;3087;48.392;10.836;2024-03-23T04:40:56;12.50;98.70
6114;DHT22;3087;48.392;10.836;2024-03-23T04:43:22;12.60;98.80
6114;DHT22;3087;48.392;10.836;2024-03-23T04:45:47;12.50;98.80
6114;DHT22;3087;48.392;10.836;2024-03-23T04:48:13;12.50;98.90
6114;DHT22;3087;48.392;10.836;2024-03-23T04:50:38;12.50;98.90
6114;DHT22;3087;48.392;10.836;2024-03-23T04:53:04;12.50;98.90
6114;DHT22;3087;48.392;10.836;2024-03-23T04:55:30;12.50;98.90
6114;DHT22;3087;48.392;10.836;2024-03-23T04:57:56;12.50;98.90
6114;DHT22;3087;48.392;10.836;2024-03-23T05:00:21;12.60;99.50
6114;DHT22;3087;48.392;10.836;2024-03-23T05:02:48;12.50;99.90
6114;DHT22;3087;48.392;10.836;2024-03-23T05:05:14;12.40;99.70
6114;DHT22;3087;48.392;10.836;2024-03-23T05:07:40;12.40;99.90
6114;DHT22;3087;48.392;10.836;2024-03-23T05:10:08;12.50;99.90
6114;DHT22;3087;48.392;10.836;2024-03-23T05:12:39;12.40;99.90
6114;DHT22;3087;48.392;10.836;2024-03-23T05:15:05;12.40;99.70
6114;DHT22;3087;48.392;10.836;2024-03-23T05:17:32;12.30;99.70
6114;DHT22;3087;48.392;10.836;2024-03-23T05:19:57;12.30;99.50
6114;DHT22;3087;48.392;10.836;2024-03-23T05:22:23;12.80;99.80
6114;DHT22;3087;48.392;10.836;2024-03-23T05:24:49;12.40;99.50
6114;DHT22;3087;48.392;10.836;2024-03-23T05:27:14;12.40;99.50
6114;DHT22;3087;48.392;10.836;2024-03-23T05:29:40;12.40;99.50
6114;DHT22;3087;48.392;10.836;2024-03-23T05:32:06;12.40;99.50
6114;DHT22;3087;48.392;10.836;2024-03-23T05:34:32;12.30;99.30
6114;DHT22;3087;48.392;10.836;2024-03-23T05:36:57;12.30;99.30
6114;DHT22;3087;48.392;10.836;2024-03-23T05:39:23;12.30;99.40
6114;DHT22;3087;48.392;10.836;2024-03-23T05:41:49;12.40;99.30
6114;DHT22;3087;48.392;10.836;2024-03-23T05:44:15;12.50;99.40
6114;DHT22;3087;48.392;10.836;2024-03-23T05:46:41;12.50;99.30
6114;DHT22;3087;48.392;10.836;2024-03-23T05:49:06;12.50;99.30
6114;DHT22;3087;48.392;10.836;2024-03-23T05:51:32;12.40;99.20
6114;DHT22;3087;48.392;10.836;2024-03-23T05:53:57;12.70;99.30
6114;DHT22;3087;48.392;10.836;2024-03-23T05:56:23;12.50;99.30
6114;DHT22;3087;48.392;10.836;2024-03-23T05:58:48;12.50;99.20
6114;DHT22;3087;48.392;10.836;2024-03-23T06:01:14;12.60;99.30
6114;DHT22;3087;48.392;10.836;2024-03-23T06:03:40;12.60;99.30
6114;DHT22;3087;48.392;10.836;2024-03-23T06:06:05;12.60;99.30
6114;DHT22;3087;48.392;10.836;2024-03-23T06:08:35;12.60;99.30
6114;DHT22;3087;48.392;10.836;2024-03-23T06:11:01;12.80;99.50
6114;DHT22;3087;48.392;10.836;2024-03-23T06:13:27;12.80;99.40
6114;DHT22;3087;48.392;10.836;2024-03-23T06:15:56;12.90;99.40
6114;DHT22;3087;48.392;10.836;2024-03-23T06:18:21;13.10;99.40
6114;DHT22;3087;48.392;10.836;2024-03-23T06:20:47;13.10;99.40
6114;DHT22;3087;48.392;10.836;2024-03-23T06:23:13;13.30;99.30
6114;DHT22;3087;48.392;10.836;2024-03-23T06:25:40;13.30;99.30
6114;DHT22;3087;48.392;10.836;2024-03-23T06:28:05;13.40;99.20
6114;DHT22;3087;48.392;10.836;2024-03-23T06:30:31;13.40;99.20
6114;DHT22;3087;48.392;10.836;2024-03-23T06:32:57;13.40;99.20
6114;DHT22;3087;48.392;10.836;2024-03-23T06:35:23;13.40;99.20
6114;DHT22;3087;48.392;10.836;2024-03-23T06:37:48;13.40;99.40
6114;DHT22;3087;48.392;10.836;2024-03-23T06:40:14;13.40;99.40
6114;DHT22;3087;48.392;10.836;2024-03-23T06:42:40;13.40;99.50
6114;DHT22;3087;48.392;10.836;2024-03-23T06:45:06;13.40;99.60
6114;DHT22;3087;48.392;10.836;2024-03-23T06:47:31;13.30;99.80
6114;DHT22;3087;48.392;10.836;2024-03-23T06:49:58;13.30;99.90
6114;DHT22;3087;48.392;10.836;2024-03-23T06:52:24;13.20;99.90
6114;DHT22;3087;48.392;10.836;2024-03-23T06:54:50;13.20;99.90
6114;DHT22;3087;48.392;10.836;2024-03-23T06:57:15;13.10;99.90
6114;DHT22;3087;48.392;10.836;2024-03-23T06:59:41;13.10;99.90
6114;DHT22;3087;48.392;10.836;2024-03-23T07:02:06;13.10;99.90
6114;DHT22;3087;48.392;10.836;2024-03-23T07:04:35;13.20;99.90
6114;DHT22;3087;48.392;10.836;2024-03-23T07:07:01;13.20;99.90
6114;DHT22;3087;48.392;10.836;2024-03-23T07:09:30;13.20;99.90
6114;DHT22;3087;48.392;10.836;2024-03-23T07:11:57;13.20;99.90
6114;DHT22;3087;48.392;10.836;2024-03-23T07:14:23;13.20;99.90
6114;DHT22;3087;48.392;10.836;2024-03-23T07:16:49;13.10;99.90
6114;DHT22;3087;48.392;10.836;2024-03-23T07:19:18;12.80;99.90
6114;DHT22;3087;48.392;10.836;2024-03-23T07:21:44;12.50;99.90
6114;DHT22;3087;48.392;10.836;2024-03-23T07:24:10;11.70;99.90
6114;DHT22;3087;48.392;10.836;2024-03-23T07:26:36;11.20;99.90
6114;DHT22;3087;48.392;10.836;2024-03-23T07:29:03;10.80;99.90
6114;DHT22;3087;48.392;10.836;2024-03-23T07:31:29;10.60;99.90
6114;DHT22;3087;48.392;10.836;2024-03-23T07:33:54;10.50;99.90
6114;DHT22;3087;48.392;10.836;2024-03-23T07:36:20;10.40;99.90
6114;DHT22;3087;48.392;10.836;2024-03-23T07:38:45;10.30;99.90
6114;DHT22;3087;48.392;10.836;2024-03-23T07:41:16;10.40;99.90
6114;DHT22;3087;48.392;10.836;2024-03-23T07:43:46;10.40;99.90
6114;DHT22;3087;48.392;10.836;2024-03-23T07:46:12;10.40;99.90
6114;DHT22;3087;48.392;10.836;2024-03-23T07:48:38;10.50;99.90
6114;DHT22;3087;48.392;10.836;2024-03-23T07:51:21;10.40;99.90
6114;DHT22;3087;48.392;10.836;2024-03-23T07:53:47;10.50;99.90
6114;DHT22;3087;48.392;10.836;2024-03-23T07:56:14;10.40;99.90
6114;DHT22;3087;48.392;10.836;2024-03-23T07:58:47;10.40;99.90
6114;DHT22;3087;48.392;10.836;2024-03-23T08:01:15;10.40;99.90
6114;DHT22;3087;48.392;10.836;2024-03-23T08:03:43;10.40;99.90
6114;DHT22;3087;48.392;10.836;2024-03-23T08:06:19;10.20;99.90
6114;DHT22;3087;48.392;10.836;2024-03-23T08:08:47;10.10;99.90
6114;DHT22;3087;48.392;10.836;2024-03-23T08:11:13;9.70;99.90
6114;DHT22;3087;48.392;10.836;2024-03-23T08:13:40;10.20;99.90
6114;DHT22;3087;48.392;10.836;2024-03-23T08:16:06;10.20;99.90
6114;DHT22;3087;48.392;10.836;2024-03-23T08:18:32;10.70;99.90
6114;DHT22;3087;48.392;10.836;2024-03-23T08:21:02;11.00;99.90
6114;DHT22;3087;48.392;10.836;2024-03-23T08:23:28;10.50;99.90
6114;DHT22;3087;48.392;10.836;2024-03-23T08:26:02;11.10;99.90
6114;DHT22;3087;48.392;10.836;2024-03-23T08:28:28;10.60;99.90
6114;DHT22;3087;48.392;10.836;2024-03-23T08:30:56;10.80;99.90
6114;DHT22;3087;48.392;10.836;2024-03-23T08:33:22;10.80;99.90
6114;DHT22;3087;48.392;10.836;2024-03-23T08:35:59;10.70;99.90
6114;DHT22;3087;48.392;10.836;2024-03-23T08:38:25;10.60;99.90
6114;DHT22;3087;48.392;10.836;2024-03-23T08:41:04;10.70;99.90
6114;DHT22;3087;48.392;10.836;2024-03-23T08:43:35;10.50;99.90
6114;DHT22;3087;48.392;10.836;2024-03-23T08:46:07;10.50;99.90
6114;DHT22;3087;48.392;10.836;2024-03-23T08:48:38;10.80;99.90
6114;DHT22;3087;48.392;10.836;2024-03-23T08:51:08;10.90;99.90
6114;DHT22;3087;48.392;10.836;2024-03-23T08:53:35;10.70;99.90
6114;DHT22;3087;48.392;10.836;2024-03-23T08:56:02;10.60;99.90
6114;DHT22;3087;48.392;10.836;2024-03-23T08:58:29;10.70;99.90
6114;DHT22;3087;48.392;10.836;2024-03-23T09:00:56;10.80;99.90
6114;DHT22;3087;48.392;10.836;2024-03-23T09:03:25;10.60;99.90
6114;DHT22;3087;48.392;10.836;2024-03-23T09:05:51;10.60;99.90
6114;DHT22;3087;48.392;10.836;2024-03-23T09:08:17;10.60;99.90
6114;DHT22;3087;48.392;10.836;2024-03-23T09:10:44;10.50;99.90
6114;DHT22;3087;48.392;10.836;2024-03-23T09:13:10;10.40;99.90
6114;DHT22;3087;48.392;10.836;2024-03-23T09:15:37;10.40;99.90
6114;DHT22;3087;48.392;10.836;2024-03-23T09:18:04;10.40;99.90
6114;DHT22;3087;48.392;10.836;2024-03-23T09:20:32;10.50;99.90
6114;DHT22;3087;48.392;10.836;2024-03-23T09:22:58;10.90;99.90
6114;DHT22;3087;48.392;10.836;2024-03-23T09:25:24;10.60;99.90
6114;DHT22;3087;48.392;10.836;2024-03-23T09:27:50;11.00;99.90
6114;DHT22;3087;48.392;10.836;2024-03-23T09:30:16;10.50;99.90
6114;DHT22;3087;48.392;10.836;2024-03-23T09:32:43;10.50;99.90
6114;DHT22;3087;48.392;10.836;2024-03-23T09:35:09;10.50;99.90
6114;DHT22;3087;48.392;10.836;2024-03-23T09:37:36;10.70;99.90
6114;DHT22;3087;48.392;10.836;2024-03-23T09:40:02;10.80;99.90
6114;DHT22;3087;48.392;10.836;2024-03-23T09:42:28;10.90;99.90
6114;DHT22;3087;48.392;10.836;2024-03-23T09:44:54;11.00;99.90
6114;DHT22;3087;48.392;10.836;2024-03-23T09:47:23;10.90;99.90
6114;DHT22;3087;48.392;10.836;2024-03-23T09:49:50;10.90;99.90
6114;DHT22;3087;48.392;10.836;2024-03-23T09:52:16;10.90;99.90
6114;DHT22;3087;48.392;10.836;2024-03-23T09:54:41;10.80;99.90
6114;DHT22;3087;48.392;10.836;2024-03-23T09:57:08;10.80;99.90
6114;DHT22;3087;48.392;10.836;2024-03-23T09:59:33;10.60;99.90
6114;DHT22;3087;48.392;10.836;2024-03-23T10:02:03;10.80;99.90
6114;DHT22;3087;48.392;10.836;2024-03-23T10:04:41;10.90;99.90
6114;DHT22;3087;48.392;10.836;2024-03-23T10:07:21;10.00;99.90
6114;DHT22;3087;48.392;10.836;2024-03-23T10:09:50;9.90;99.90
6114;DHT22;3087;48.392;10.836;2024-03-23T10:12:19;9.90;99.90
6114;DHT22;3087;48.392;10.836;2024-03-23T10:14:45;9.80;99.90
6114;DHT22;3087;48.392;10.836;2024-03-23T10:17:18;9.90;99.90
6114;DHT22;3087;48.392;10.836;2024-03-23T10:19:48;9.80;99.90
6114;DHT22;3087;48.392;10.836;2024-03-23T10:22:19;10.00;99.90
6114;DHT22;3087;48.392;10.836;2024-03-23T10:24:45;9.90;99.90
6114;DHT22;3087;48.392;10.836;2024-03-23T10:27:18;10.10;99.90
6114;DHT22;3087;48.392;10.836;2024-03-23T10:29:48;10.40;99.90
6114;DHT22;3087;48.392;10.836;2024-03-23T10:32:15;10.20;99.90
6114;DHT22;3087;48.392;10.836;2024-03-23T10:34:41;10.30;99.90
6114;DHT22;3087;48.392;10.836;2024-03-23T10:37:08;10.40;99.90
6114;DHT22;3087;48.392;10.836;2024-03-23T10:39:36;10.70;99.90
6114;DHT22;3087;48.392;10.836;2024-03-23T10:42:09;10.70;99.90
6114;DHT22;3087;48.392;10.836;2024-03-23T10:44:38;10.70;99.90
6114;DHT22;3087;48.392;10.836;2024-03-23T10:47:04;10.70;99.90
6114;DHT22;3087;48.392;10.836;2024-03-23T10:49:34;8.00;99.90
6114;DHT22;3087;48.392;10.836;2024-03-23T10:52:04;10.50;99.90
6114;DHT22;3087;48.392;10.836;2024-03-23T10:54:31;10.70;99.90
6114;DHT22;3087;48.392;10.836;2024-03-23T10:57:12;10.50;99.90
6114;DHT22;3087;48.392;10.836;2024-03-23T10:59:40;10.60;99.90
6114;DHT22;3087;48.392;10.836;2024-03-23T11:02:06;11.00;99.90
6114;DHT22;3087;48.392;10.836;2024-03-23T11:04:37;11.30;99.90
6114;DHT22;3087;48.392;10.836;2024-03-23T11:09:55;12.30;99.90
6114;DHT22;3087;48.392;10.836;2024-03-23T11:17:31;12.60;99.90
6114;DHT22;3087;48.392;10.836;2024-03-23T11:22:41;12.50;99.90
6114;DHT22;3087;48.392;10.836;2024-03-23T11:27:44;11.20;99.60
6114;DHT22;3087;48.392;10.836;2024-03-23T11:30:21;10.80;99.70
6114;DHT22;3087;48.392;10.836;2024-03-23T11:32:48;10.80;99.50
6114;DHT22;3087;48.392;10.836;2024-03-23T11:35:34;10.60;99.40
6114;DHT22;3087;48.392;10.836;2024-03-23T11:40:30;10.30;98.90
6114;DHT22;3087;48.392;10.836;2024-03-23T11:42:59;10.10;98.40
6114;DHT22;3087;48.392;10.836;2024-03-23T11:45:25;10.30;99.40
6114;DHT22;3087;48.392;10.836;2024-03-23T11:48:02;10.70;99.10
6114;DHT22;3087;48.392;10.836;2024-03-23T11:50:28;11.10;99.30
6114;DHT22;3087;48.392;10.836;2024-03-23T11:53:06;11.30;99.20
6114;DHT22;3087;48.392;10.836;2024-03-23T11:55:48;11.50;98.90
6114;DHT22;3087;48.392;10.836;2024-03-23T11:58:16;11.90;99.50
6114;DHT22;3087;48.392;10.836;2024-03-23T12:00:42;12.10;99.60
6114;DHT22;3087;48.392;10.836;2024-03-23T12:03:08;12.00;99.10
6114;DHT22;3087;48.392;10.836;2024-03-23T12:05:35;12.00;99.30
6114;DHT22;3087;48.392;10.836;2024-03-23T12:10:49;11.70;98.40
6114;DHT22;3087;48.392;10.836;2024-03-23T12:13:16;11.50;97.80
6114;DHT22;3087;48.392;10.836;2024-03-23T12:15:43;11.20;98.10
6114;DHT22;3087;48.392;10.836;2024-03-23T12:18:09;11.10;97.70
6114;DHT22;3087;48.392;10.836;2024-03-23T12:20:38;11.30;98.30
6114;DHT22;3087;48.392;10.836;2024-03-23T12:23:05;12.40;98.80
6114;DHT22;3087;48.392;10.836;2024-03-23T12:25:31;12.80;97.40
6114;DHT22;3087;48.392;10.836;2024-03-23T12:27:59;12.80;97.50
6114;DHT22;3087;48.392;10.836;2024-03-23T12:30:24;12.70;96.90
6114;DHT22;3087;48.392;10.836;2024-03-23T12:32:50;12.60;95.70
6114;DHT22;3087;48.392;10.836;2024-03-23T12:35:15;12.40;95.40
6114;DHT22;3087;48.392;10.836;2024-03-23T12:37:41;12.10;95.60
6114;DHT22;3087;48.392;10.836;2024-03-23T12:40:07;12.00;96.10
6114;DHT22;3087;48.392;10.836;2024-03-23T12:42:33;11.80;95.90
6114;DHT22;3087;48.392;10.836;2024-03-23T12:44:58;11.70;95.50
6114;DHT22;3087;48.392;10.836;2024-03-23T12:47:24;11.60;95.30
6114;DHT22;3087;48.392;10.836;2024-03-23T12:49:50;11.50;94.40
6114;DHT22;3087;48.392;10.836;2024-03-23T12:52:17;11.20;94.30
6114;DHT22;3087;48.392;10.836;2024-03-23T12:54:43;11.10;95.40
6114;DHT22;3087;48.392;10.836;2024-03-23T12:57:08;10.80;95.60
6114;DHT22;3087;48.392;10.836;2024-03-23T12:59:34;10.50;96.80
6114;DHT22;3087;48.392;10.836;2024-03-23T13:02:01;10.10;98.50
6114;DHT22;3087;48.392;10.836;2024-03-23T13:04:26;9.80;99.80
6114;DHT22;3087;48.392;10.836;2024-03-23T13:06:52;9.40;99.90
6114;DHT22;3087;48.392;10.836;2024-03-23T13:09:18;9.20;99.90
6114;DHT22;3087;48.392;10.836;2024-03-23T13:11:43;10.00;99.90
6114;DHT22;3087;48.392;10.836;2024-03-23T13:14:09;8.80;99.90
6114;DHT22;3087;48.392;10.836;2024-03-23T13:16:35;8.80;99.90
6114;DHT22;3087;48.392;10.836;2024-03-23T13:19:01;8.90;99.90
6114;DHT22;3087;48.392;10.836;2024-03-23T13:21:26;8.80;99.90
6114;DHT22;3087;48.392;10.836;2024-03-23T13:23:52;9.60;99.90
6114;DHT22;3087;48.392;10.836;2024-03-23T13:26:17;8.80;99.90
6114;DHT22;3087;48.392;10.836;2024-03-23T13:28:43;8.70;99.80
6114;DHT22;3087;48.392;10.836;2024-03-23T13:31:10;8.50;97.90
6114;DHT22;3087;48.392;10.836;2024-03-23T13:33:35;8.30;97.20
6114;DHT22;3087;48.392;10.836;2024-03-23T13:36:01;8.40;98.00
6114;DHT22;3087;48.392;10.836;2024-03-23T13:38:28;8.40;98.60
6114;DHT22;3087;48.392;10.836;2024-03-23T13:40:58;9.30;99.20
6114;DHT22;3087;48.392;10.836;2024-03-23T13:43:26;8.70;99.20
6114;DHT22;3087;48.392;10.836;2024-03-23T13:45:58;8.90;98.80
6114;DHT22;3087;48.392;10.836;2024-03-23T13:48:25;8.90;98.40
6114;DHT22;3087;48.392;10.836;2024-03-23T13:51:01;9.30;98.10
6114;DHT22;3087;48.392;10.836;2024-03-23T13:53:27;8.90;99.10
6114;DHT22;3087;48.392;10.836;2024-03-23T13:55:53;9.60;98.70
6114;DHT22;3087;48.392;10.836;2024-03-23T13:58:19;9.60;98.60
6114;DHT22;3087;48.392;10.836;2024-03-23T14:00:45;8.90;99.20
6114;DHT22;3087;48.392;10.836;2024-03-23T14:03:12;9.50;99.00
6114;DHT22;3087;48.392;10.836;2024-03-23T14:05:38;9.60;99.20
6114;DHT22;3087;48.392;10.836;2024-03-23T14:08:09;9.10;98.40
6114;DHT22;3087;48.392;10.836;2024-03-23T14:10:36;9.10;98.80
6114;DHT22;3087;48.392;10.836;2024-03-23T14:13:05;9.20;99.20
6114;DHT22;3087;48.392;10.836;2024-03-23T14:15:30;10.10;98.90
6114;DHT22;3087;48.392;10.836;2024-03-23T14:17:56;9.50;98.10
6114;DHT22;3087;48.392;10.836;2024-03-23T14:20:22;9.60;98.20
6114;DHT22;3087;48.392;10.836;2024-03-23T14:22:49;10.40;98.20
6114;DHT22;3087;48.392;10.836;2024-03-23T14:25:14;9.70;98.40
6114;DHT22;3087;48.392;10.836;2024-03-23T14:27:40;10.40;97.70
6114;DHT22;3087;48.392;10.836;2024-03-23T14:30:06;10.50;97.40
6114;DHT22;3087;48.392;10.836;2024-03-23T14:32:32;10.60;97.30
6114;DHT22;3087;48.392;10.836;2024-03-23T14:35:02;10.70;96.70
6114;DHT22;3087;48.392;10.836;2024-03-23T14:37:28;10.70;96.10
6114;DHT22;3087;48.392;10.836;2024-03-23T14:39:57;10.70;96.00
6114;DHT22;3087;48.392;10.836;2024-03-23T14:42:23;10.80;96.40
6114;DHT22;3087;48.392;10.836;2024-03-23T14:44:49;10.80;95.90
6114;DHT22;3087;48.392;10.836;2024-03-23T14:47:16;11.10;96.30
6114;DHT22;3087;48.392;10.836;2024-03-23T14:49:46;10.40;94.60
6114;DHT22;3087;48.392;10.836;2024-03-23T14:52:13;10.30;95.70
6114;DHT22;3087;48.392;10.836;2024-03-23T14:54:39;10.30;96.00
6114;DHT22;3087;48.392;10.836;2024-03-23T14:57:05;10.30;95.90
6114;DHT22;3087;48.392;10.836;2024-03-23T14:59:32;10.00;95.80
6114;DHT22;3087;48.392;10.836;2024-03-23T15:01:57;10.00;96.10
6114;DHT22;3087;48.392;10.836;2024-03-23T15:04:23;10.00;96.40
6114;DHT22;3087;48.392;10.836;2024-03-23T15:06:49;10.10;96.20
6114;DHT22;3087;48.392;10.836;2024-03-23T15:09:15;10.30;96.90
6114;DHT22;3087;48.392;10.836;2024-03-23T15:11:41;10.40;96.60
6114;DHT22;3087;48.392;10.836;2024-03-23T15:14:07;10.40;96.50
6114;DHT22;3087;48.392;10.836;2024-03-23T15:16:32;10.40;97.10
6114;DHT22;3087;48.392;10.836;2024-03-23T15:18:58;10.40;96.50
6114;DHT22;3087;48.392;10.836;2024-03-23T15:21:24;10.40;96.10
6114;DHT22;3087;48.392;10.836;2024-03-23T15:23:49;10.30;95.90
6114;DHT22;3087;48.392;10.836;2024-03-23T15:26:15;10.20;96.20
6114;DHT22;3087;48.392;10.836;2024-03-23T15:28:42;11.10;96.50
6114;DHT22;3087;48.392;10.836;2024-03-23T15:31:27;10.30;96.60
6114;DHT22;3087;48.392;10.836;2024-03-23T15:33:54;10.30;96.30
6114;DHT22;3087;48.392;10.836;2024-03-23T15:36:19;10.20;96.00
6114;DHT22;3087;48.392;10.836;2024-03-23T15:38:45;9.90;96.40
6114;DHT22;3087;48.392;10.836;2024-03-23T15:41:10;9.60;96.00
6114;DHT22;3087;48.392;10.836;2024-03-23T15:43:36;9.40;96.40
6114;DHT22;3087;48.392;10.836;2024-03-23T15:46:04;9.70;96.70
6114;DHT22;3087;48.392;10.836;2024-03-23T15:48:31;9.40;96.60
6114;DHT22;3087;48.392;10.836;2024-03-23T15:50:58;10.60;96.60
6114;DHT22;3087;48.392;10.836;2024-03-23T15:53:25;10.00;96.80
6114;DHT22;3087;48.392;10.836;2024-03-23T15:55:58;10.00;96.40
6114;DHT22;3087;48.392;10.836;2024-03-23T15:58:24;9.90;97.30
6114;DHT22;3087;48.392;10.836;2024-03-23T16:00:57;10.00;96.70
6114;DHT22;3087;48.392;10.836;2024-03-23T16:03:23;10.10;95.90
6114;DHT22;3087;48.392;10.836;2024-03-23T16:05:53;9.90;96.30
6114;DHT22;3087;48.392;10.836;2024-03-23T16:08:19;9.90;96.70
6114;DHT22;3087;48.392;10.836;2024-03-23T16:10:44;9.90;97.50
6114;DHT22;3087;48.392;10.836;2024-03-23T16:13:10;10.00;97.40
6114;DHT22;3087;48.392;10.836;2024-03-23T16:15:35;10.00;96.80
6114;DHT22;3087;48.392;10.836;2024-03-23T16:18:01;10.00;96.90
6114;DHT22;3087;48.392;10.836;2024-03-23T16:20:27;9.90;96.90
6114;DHT22;3087;48.392;10.836;2024-03-23T16:22:52;9.90;96.50
6114;DHT22;3087;48.392;10.836;2024-03-23T16:25:18;9.70;96.60
6114;DHT22;3087;48.392;10.836;2024-03-23T16:27:44;9.70;97.20
6114;DHT22;3087;48.392;10.836;2024-03-23T16:30:10;9.70;97.30
6114;DHT22;3087;48.392;10.836;2024-03-23T16:32:36;9.70;96.70
6114;DHT22;3087;48.392;10.836;2024-03-23T16:35:04;9.70;96.90
6114;DHT22;3087;48.392;10.836;2024-03-23T16:37:30;9.50;95.70
6114;DHT22;3087;48.392;10.836;2024-03-23T16:39:55;9.50;95.70
6114;DHT22;3087;48.392;10.836;2024-03-23T16:42:21;9.70;95.60
6114;DHT22;3087;48.392;10.836;2024-03-23T16:44:47;9.70;95.90
6114;DHT22;3087;48.392;10.836;2024-03-23T16:47:12;9.20;96.10
6114;DHT22;3087;48.392;10.836;2024-03-23T16:49:38;9.60;95.50
6114;DHT22;3087;48.392;10.836;2024-03-23T16:52:04;9.10;95.50
6114;DHT22;3087;48.392;10.836;2024-03-23T16:54:30;9.20;95.90
6114;DHT22;3087;48.392;10.836;2024-03-23T16:56:56;9.50;95.90
6114;DHT22;3087;48.392;10.836;2024-03-23T16:59:22;9.30;95.90